Nearby METAR Reports

 

CYUL - Montreal/Dorval, Quebec, Canada
Distance from station: ENE 6km
Updated: 02/23/2018 21:16 EST
Rain drizzle, Overcast
Rain drizzle, Overcast
 Wind from WSW
Wind: WSW 6 km/h
Temperature: 1°C
Dew Point: 0°C
Humidity: 93%
Barometer: 1015.2 hPa
Summary: Rain Drizzle
Clouds: Overcast
Visibility: 3 km
Cloud details: Mostly cloudy 91 m
Overcast 152 m
2018/02/24 02:16 CYUL 240216Z 24003KT 2SM RADZ BKN003 OVC005 01/00 A2998 RMK SF5SF3 SLP155
CWVQ - Ste Anne De Bell, Quebec, Canada
Distance from station: WSW 10km
Updated: 02/23/2018 21:00 EST

 Wind from NW
Wind: NW 6 km/h
Temperature: 0°C
Dew Point: 0°C
Humidity: 100%
2018/02/24 02:00 CWVQ 240200Z AUTO 32003KT M00/M00 RMK AO1 5PAST HR SOG 15 6018 SLP154 P0002 T10011001 50011
 
CWTA - Mc Tavish (aut), Quebec, Canada
Distance from station: ENE 18km
Updated: 02/23/2018 21:00 EST

 Wind from SSW
Wind: SSW 6 km/h
Temperature: 1°C
Dew Point: 1°C
Humidity: 100%
2018/02/24 02:00 CWTA 240200Z AUTO 20003KT 01/01 RMK AO1 5PAST HR SOG 59 6021 SLP151 P0002 T00110006 50008
CYMX - Montreal/Mirabel, Quebec, Canada
Distance from station: NW 29km
Updated: 02/23/2018 21:26 EST
Light freezing, Drizzle, Mist, Overcast
Light freezing, Drizzle, Mist, Overcast
 Wind from SSW
Wind: SSW 6 km/h
Temperature: -1°C
Dew Point: -2°C
Humidity: 93%
Barometer: 1014.6 hPa
Summary: Light freezing, Drizzle, Mist
Clouds: Overcast
Visibility: 2 km
Cloud details: Partly cloudy 244 m
Overcast 366 m
2018/02/24 02:26 CYMX 240226Z 20003KT 1 1/2SM -FZDZ BR SCT008 OVC012 M01/M02 A2996 RMK FG2SF2SC4 SLP154
 
CYHU - Saint Hubert Arp, Quebec, Canada
Distance from station: ENE 31km
Updated: 02/23/2018 21:05 EST
Light rain, Mist, Overcast
Light rain, Mist, Overcast
 Wind from S
Wind: S 22 km/h, Gust: 33 km/h
Temperature: 1°C
Wind Chill: -4°C
Dew Point: 1°C
Humidity: 100%
Barometer: 1014.9 hPa
Summary: Light rain, Mist
Clouds: Overcast
Visibility: 3 km
Cloud details: Mostly cloudy 122 m
Overcast 396 m
2018/02/24 02:05 CYHU 240205Z AUTO 19012G18KT 2SM -RA BR BKN004 OVC013 01/01 A2997 RMK SLP151
CWIT - St Clothilde (a, Quebec, Canada
Distance from station: SSE 33km
Updated: 02/23/2018 21:00 EST

 Wind from S
Wind: S 6 km/h
Temperature: 1°C
Dew Point: 1°C
Humidity: 100%
2018/02/24 02:00 CWIT 240200Z AUTO 17003KT 01/01 RMK AO1 2PAST HR SOG 03 6018 SLP148 P0001 T00130008 50005
 
CWIZ - L'acadie, Quebec, Canada
Distance from station: ESE 41km
Updated: 02/23/2018 21:00 EST

 Wind from S
Wind: S 30 km/h, Gust: 41 km/h
Temperature: 1°C
Wind Chill: -5°C
Dew Point: 0°C
Humidity: 93%
2018/02/24 02:00 CWIZ 240200Z AUTO 19016G22KT 01/M00 RMK AO1 SOG 11 PK WND 19024/0100 T00131001 50002
CWHM - Varennes, Quebec, Canada
Distance from station: NE 45km
Updated: 10/25/2016 10:00 EDT
NOT Current

 Wind from W
Wind: W 19 km/h, Gust: 28 km/h
Temperature: 4°C
Wind Chill: 0°C
Dew Point: -2°C
Humidity: 65%
2016/10/25 14:00 CWHM 251400Z AUTO 28010G15KT 04/M02 RMK AO1 PK WND 28018/1302 T00391017
 
CWEW - L'assomption, Quebec, Canada
Distance from station: NE 50km
Updated: 02/23/2018 21:00 EST

 Wind from WNW
Wind: WNW 7 km/h
Temperature: -2°C
Wind Chill: -6°C
Dew Point: -3°C
Humidity: 93%
2018/02/24 02:00 CWEW 240200Z AUTO 30004KT M02/M03 RMK AO1 2PAST HR SOG 15 6023 SLP159 P0001 T10221028 50009
CWBZ - St Anicet, Quebec, Canada
Distance from station: SW 52km
Updated: 02/23/2018 20:00 EST
NOT Current

 Wind from WSW
Wind: WSW 4 km/h
Temperature: 0°C
Dew Point: 0°C
Humidity: 100%
2018/02/24 01:00 CWBZ 240100Z AUTO 24002KT M00/M00 RMK AO1 SLP160 T10021001 56021
 
KFSO - Highgate, Vermont, USA
Distance from station: SE 79km
Updated: 02/23/2018 21:15 EST
Overcast
Overcast
 Wind from S
Wind: S 22 km/h, Gust: 35 km/h
Temperature: 3°C
Wind Chill: -2°C
Dew Point: 0°C
Humidity: 81%
Barometer: 1015.9 hPa
Clouds: Overcast
Visibility: 16 km
Cloud details: Mostly cloudy 732 m
Overcast 884 m
2018/02/24 02:15 KFSO 240215Z AUTO 18012G19KT 160V230 10SM BKN024 OVC029 03/00 A3000 RMK AO2 T00260003
CMGB - Granby, Quebec, Canada
Distance from station: E 81km
Updated: 02/23/2018 21:15 EST

 Wind from SSW
Wind: SSW 11 km/h, Gust: 28 km/h
Temperature: 2°C
Wind Chill: -1°C
Dew Point: 2°C
Humidity: 100%
2018/02/24 02:15 CMGB 240215Z AUTO 20006G15KT 02/02 RMK AO1 SOG 10 6030 SLP152 T00230016
 
CWJT - St Jovite (autob, Quebec, Canada
Distance from station: NW 88km
Updated: 02/23/2018 21:00 EST

 Wind from S
Wind: S 2 km/h
Temperature: 0°C
Dew Point: 0°C
Humidity: 100%
2018/02/24 02:00 CWJT 240200Z AUTO 19001KT M00/M00 RMK AO1 SLP156 T10011001 56015
CWFQ - Frelighsburg, Quebec, Canada
Distance from station: ESE 90km
Updated: 02/23/2018 21:00 EST

 Wind from S
Wind: S 19 km/h, Gust: 39 km/h
Temperature: 2°C
Wind Chill: -2°C
Dew Point: 1°C
Humidity: 93%
2018/02/24 02:00 CWFQ 240200Z AUTO 18010G21KT 02/01 RMK AO1 6025 PK WND 17022/0144 SLP154 T00240005 50002
 
KPBG - Plattsburgh Afb, New York, USA
Distance from station: SSE 93km
Updated: 02/23/2018 20:53 EST
Overcast
Overcast
 Wind from SE
Wind: SE 17 km/h
Temperature: 2°C
Wind Chill: -2°C
Dew Point: 0°C
Humidity: 87%
Barometer: 1016.6 hPa
Clouds: Overcast
Visibility: 16 km
Cloud details: Overcast 884 m
2018/02/24 01:53 KPBG 240153Z AUTO 14009KT 10SM OVC029 02/00 A3002 RMK AO2 SLP169 T00220000 $
KMSS - Massena, New York, USA
Distance from station: SW 100km
Updated: 02/23/2018 20:53 EST
Light rain, Mist, Overcast
Light rain, Mist, Overcast
 Wind from calm
Wind: Calm
Temperature: 1°C
Dew Point: 1°C
Humidity: 100%
Barometer: 1015.6 hPa
Summary: Light rain, Mist
Clouds: Overcast
Visibility: 6 km
Cloud details: Mostly cloudy 274 m
Overcast 396 m
2018/02/24 01:53 KMSS 240153Z AUTO 00000KT 4SM -RA BR BKN009 OVC013 01/01 A2999 RMK AO2 RAB44 SLP160 P0000 I1001 T00060006
 
CWBS - Lac St Pierre (a, Quebec, Canada
Distance from station: NE 106km
Updated: 02/23/2018 21:00 EST

 Wind from W
Wind: W 13 km/h
Temperature: -1°C
Wind Chill: -6°C
Dew Point: -2°C
Humidity: 93%
2018/02/24 02:00 CWBS 240200Z AUTO 28007KT M01/M02 RMK AO1 T10051016
KBTV - Burlington, Vermont, USA
Distance from station: SSE 121km
Updated: 02/23/2018 20:54 EST
Overcast
Overcast
 Wind from S
Wind: S 43 km/h, Gust: 59 km/h
Temperature: 3°C
Wind Chill: -4°C
Dew Point: 0°C
Humidity: 81%
Barometer: 1016.9 hPa
Clouds: Overcast
Visibility: 16 km
Cloud details: Overcast 1158 m
2018/02/24 01:54 KBTV 240154Z 19023G32KT 10SM OVC038 03/00 A3003 RMK AO2 PK WND 18036/0109 RAE13 SLP172 P0000 T00280000
 
KSLK - Saranac Lake, New York, USA
Distance from station: SSW 121km
Updated: 02/23/2018 21:22 EST
Mist, Overcast
Mist, Overcast
 Wind from SW
Wind: SW 17 km/h
Temperature: 2°C
Wind Chill: -2°C
Dew Point: 2°C
Humidity: 100%
Barometer: 1014.6 hPa
Summary: Mist
Clouds: Overcast
Visibility: 6 km
Cloud details: Overcast 152 m
2018/02/24 02:22 KSLK 240222Z AUTO 22009KT 4SM BR OVC005 02/02 A2996 RMK AO2 RAB11E14UPB14E21 P0000 T00220022
CWNQ - Nicolet (autob), Quebec, Canada
Distance from station: NE 123km
Updated: 02/23/2018 21:00 EST

 Wind from SW
Wind: SW 15 km/h
Temperature: 1°C
Wind Chill: -3°C
Dew Point: 0°C
Humidity: 93%
2018/02/24 02:00 CWNQ 240200Z AUTO 23008KT 01/M00 RMK AO1 6PAST HR 6028 SLP146 P0006 T00091001 50016
 
KMWN - Mount Washington, New Hampshire, USA
Distance from station: SE 237km
Updated: 02/23/2018 20:54 EST
Light freezing, Rain
Light freezing, Rain
 Wind from WSW
Wind: WSW 87 km/h, Gust: 98 km/h
Summary: Light freezing, Rain
Visibility: 2 km
2018/02/24 01:54 KMWN 240154Z 25047G53KT 1/16SM -FZRA -PL FZFG VV000 M04/M04 RMK SNE10FZRAB25 VRY LGT GICG
CYVR - Vancouver Intl A, British Columbia, Canada
Distance from station: NW 3676km
Updated: 02/23/2018 21:00 EST
Overcast
Overcast
 Wind from ENE
Wind: ENE 19 km/h, Gust: 30 km/h
Temperature: 0°C
Wind Chill: -5°C
Dew Point: -3°C
Humidity: 80%
Barometer: 1021.7 hPa
Clouds: Overcast
Visibility: 24 km
Cloud details: Few Clouds 488 m
Partly cloudy 762 m
Overcast 945 m
2018/02/24 02:00 CYVR 240200Z 07010G16KT 15SM FEW016 SCT025 OVC031 M00/M03 A3017 RMK SC2SC1SC5 SLP217